sensor_id;sensor_type;location;lat;lon;timestamp;pressure;altitude;pressure_sealevel;temperature
38114;BMP180;23926;53.222;6.354;2024-02-28T00:01:01;101767.00;;;8.00
38114;BMP180;23926;53.222;6.354;2024-02-28T00:03:27;101756.00;;;8.00
38114;BMP180;23926;53.222;6.354;2024-02-28T00:05:52;101756.00;;;8.20
38114;BMP180;23926;53.222;6.354;2024-02-28T00:08:18;101759.00;;;8.20
38114;BMP180;23926;53.222;6.354;2024-02-28T00:10:45;101759.00;;;8.20
38114;BMP180;23926;53.222;6.354;2024-02-28T00:13:10;101746.00;;;8.10
38114;BMP180;23926;53.222;6.354;2024-02-28T00:15:36;101754.00;;;8.00
38114;BMP180;23926;53.222;6.354;2024-02-28T00:18:01;101744.00;;;8.00
38114;BMP180;23926;53.222;6.354;2024-02-28T00:20:28;101754.00;;;8.10
38114;BMP180;23926;53.222;6.354;2024-02-28T00:22:54;101759.00;;;8.10
38114;BMP180;23926;53.222;6.354;2024-02-28T00:25:20;101756.00;;;8.00
38114;BMP180;23926;53.222;6.354;2024-02-28T00:27:45;101745.00;;;8.10
38114;BMP180;23926;53.222;6.354;2024-02-28T00:30:11;101755.00;;;8.10
38114;BMP180;23926;53.222;6.354;2024-02-28T00:32:37;101751.00;;;8.10
38114;BMP180;23926;53.222;6.354;2024-02-28T00:35:02;101744.00;;;8.00
38114;BMP180;23926;53.222;6.354;2024-02-28T00:37:29;101759.00;;;8.00
38114;BMP180;23926;53.222;6.354;2024-02-28T00:39:54;101751.00;;;8.00
38114;BMP180;23926;53.222;6.354;2024-02-28T00:42:20;101756.00;;;8.00
38114;BMP180;23926;53.222;6.354;2024-02-28T00:44:45;101754.00;;;8.00
38114;BMP180;23926;53.222;6.354;2024-02-28T00:47:10;101761.00;;;8.00
38114;BMP180;23926;53.222;6.354;2024-02-28T00:49:36;101752.00;;;7.90
38114;BMP180;23926;53.222;6.354;2024-02-28T00:52:02;101750.00;;;8.00
38114;BMP180;23926;53.222;6.354;2024-02-28T00:54:27;101747.00;;;7.90
38114;BMP180;23926;53.222;6.354;2024-02-28T00:56:53;101761.00;;;8.00
38114;BMP180;23926;53.222;6.354;2024-02-28T00:59:18;101758.00;;;8.00
38114;BMP180;23926;53.222;6.354;2024-02-28T01:01:43;101757.00;;;8.00
38114;BMP180;23926;53.222;6.354;2024-02-28T01:04:09;101758.00;;;7.90
38114;BMP180;23926;53.222;6.354;2024-02-28T01:06:34;101741.00;;;7.90
38114;BMP180;23926;53.222;6.354;2024-02-28T01:08:59;101744.00;;;7.90
38114;BMP180;23926;53.222;6.354;2024-02-28T01:11:25;101754.00;;;8.00
38114;BMP180;23926;53.222;6.354;2024-02-28T01:13:50;101757.00;;;8.00
38114;BMP180;23926;53.222;6.354;2024-02-28T01:16:16;101746.00;;;7.90
38114;BMP180;23926;53.222;6.354;2024-02-28T01:18:42;101754.00;;;7.90
38114;BMP180;23926;53.222;6.354;2024-02-28T01:21:07;101766.00;;;8.00
38114;BMP180;23926;53.222;6.354;2024-02-28T01:23:32;101753.00;;;8.00
38114;BMP180;23926;53.222;6.354;2024-02-28T01:25:58;101753.00;;;7.80
38114;BMP180;23926;53.222;6.354;2024-02-28T01:28:23;101741.00;;;7.60
38114;BMP180;23926;53.222;6.354;2024-02-28T01:30:49;101733.00;;;7.60
38114;BMP180;23926;53.222;6.354;2024-02-28T01:33:14;101726.00;;;7.70
38114;BMP180;23926;53.222;6.354;2024-02-28T01:35:40;101738.00;;;7.40
38114;BMP180;23926;53.222;6.354;2024-02-28T01:38:05;101743.00;;;7.50
38114;BMP180;23926;53.222;6.354;2024-02-28T01:40:30;101736.00;;;7.60
38114;BMP180;23926;53.222;6.354;2024-02-28T01:43:11;101734.00;;;7.50
38114;BMP180;23926;53.222;6.354;2024-02-28T01:45:37;101730.00;;;7.60
38114;BMP180;23926;53.222;6.354;2024-02-28T01:48:03;101741.00;;;7.60
38114;BMP180;23926;53.222;6.354;2024-02-28T01:50:31;101738.00;;;7.50
38114;BMP180;23926;53.222;6.354;2024-02-28T01:52:57;101732.00;;;7.50
38114;BMP180;23926;53.222;6.354;2024-02-28T01:55:22;101728.00;;;7.60
38114;BMP180;23926;53.222;6.354;2024-02-28T01:57:48;101733.00;;;7.60
38114;BMP180;23926;53.222;6.354;2024-02-28T02:00:15;101738.00;;;7.70
38114;BMP180;23926;53.222;6.354;2024-02-28T02:02:42;101737.00;;;7.60
38114;BMP180;23926;53.222;6.354;2024-02-28T02:05:09;101734.00;;;7.50
38114;BMP180;23926;53.222;6.354;2024-02-28T02:07:34;101727.00;;;7.70
38114;BMP180;23926;53.222;6.354;2024-02-28T02:10:00;101716.00;;;7.70
38114;BMP180;23926;53.222;6.354;2024-02-28T02:12:26;101722.00;;;7.70
38114;BMP180;23926;53.222;6.354;2024-02-28T02:14:51;101725.00;;;7.60
38114;BMP180;23926;53.222;6.354;2024-02-28T02:17:17;101724.00;;;7.70
38114;BMP180;23926;53.222;6.354;2024-02-28T02:19:42;101714.00;;;7.80
38114;BMP180;23926;53.222;6.354;2024-02-28T02:22:08;101702.00;;;7.80
38114;BMP180;23926;53.222;6.354;2024-02-28T02:24:35;101710.00;;;7.70
38114;BMP180;23926;53.222;6.354;2024-02-28T02:27:02;101709.00;;;7.80
38114;BMP180;23926;53.222;6.354;2024-02-28T02:29:28;101712.00;;;7.90
38114;BMP180;23926;53.222;6.354;2024-02-28T02:31:54;101713.00;;;7.90
38114;BMP180;23926;53.222;6.354;2024-02-28T02:34:19;101706.00;;;8.00
38114;BMP180;23926;53.222;6.354;2024-02-28T02:36:44;101718.00;;;7.90
38114;BMP180;23926;53.222;6.354;2024-02-28T02:39:10;101715.00;;;7.90
38114;BMP180;23926;53.222;6.354;2024-02-28T02:41:35;101703.00;;;7.90
38114;BMP180;23926;53.222;6.354;2024-02-28T02:44:00;101706.00;;;7.90
38114;BMP180;23926;53.222;6.354;2024-02-28T02:46:26;101707.00;;;7.80
38114;BMP180;23926;53.222;6.354;2024-02-28T02:48:51;101703.00;;;7.80
38114;BMP180;23926;53.222;6.354;2024-02-28T02:51:19;101714.00;;;7.60
38114;BMP180;23926;53.222;6.354;2024-02-28T02:53:44;101700.00;;;7.70
38114;BMP180;23926;53.222;6.354;2024-02-28T02:56:09;101695.00;;;7.70
38114;BMP180;23926;53.222;6.354;2024-02-28T02:58:35;101691.00;;;7.60
38114;BMP180;23926;53.222;6.354;2024-02-28T03:01:00;101702.00;;;7.70
38114;BMP180;23926;53.222;6.354;2024-02-28T03:03:25;101692.00;;;7.80
38114;BMP180;23926;53.222;6.354;2024-02-28T03:05:51;101698.00;;;7.80
38114;BMP180;23926;53.222;6.354;2024-02-28T03:08:16;101700.00;;;7.80
38114;BMP180;23926;53.222;6.354;2024-02-28T03:10:41;101700.00;;;7.80
38114;BMP180;23926;53.222;6.354;2024-02-28T03:13:07;101699.00;;;7.90
38114;BMP180;23926;53.222;6.354;2024-02-28T03:15:33;101703.00;;;7.80
38114;BMP180;23926;53.222;6.354;2024-02-28T03:17:59;101703.00;;;7.80
38114;BMP180;23926;53.222;6.354;2024-02-28T03:20:24;101693.00;;;7.80
38114;BMP180;23926;53.222;6.354;2024-02-28T03:22:51;101702.00;;;7.90
38114;BMP180;23926;53.222;6.354;2024-02-28T03:25:16;101696.00;;;7.90
38114;BMP180;23926;53.222;6.354;2024-02-28T03:27:41;101691.00;;;8.00
38114;BMP180;23926;53.222;6.354;2024-02-28T03:30:08;101704.00;;;8.00
38114;BMP180;23926;53.222;6.354;2024-02-28T03:32:33;101702.00;;;8.10
38114;BMP180;23926;53.222;6.354;2024-02-28T03:34:58;101702.00;;;8.10
38114;BMP180;23926;53.222;6.354;2024-02-28T03:37:24;101697.00;;;8.10
38114;BMP180;23926;53.222;6.354;2024-02-28T03:39:49;101701.00;;;8.20
38114;BMP180;23926;53.222;6.354;2024-02-28T03:42:15;101697.00;;;8.10
38114;BMP180;23926;53.222;6.354;2024-02-28T03:44:40;101688.00;;;8.10
38114;BMP180;23926;53.222;6.354;2024-02-28T03:47:05;101693.00;;;8.00
38114;BMP180;23926;53.222;6.354;2024-02-28T03:49:31;101691.00;;;8.00
38114;BMP180;23926;53.222;6.354;2024-02-28T03:51:56;101684.00;;;7.90
38114;BMP180;23926;53.222;6.354;2024-02-28T03:54:21;101687.00;;;7.80
38114;BMP180;23926;53.222;6.354;2024-02-28T03:56:47;101687.00;;;7.70
38114;BMP180;23926;53.222;6.354;2024-02-28T03:59:12;101695.00;;;7.80
38114;BMP180;23926;53.222;6.354;2024-02-28T04:01:38;101696.00;;;7.80
38114;BMP180;23926;53.222;6.354;2024-02-28T04:04:03;101705.00;;;7.80
38114;BMP180;23926;53.222;6.354;2024-02-28T04:06:29;101698.00;;;7.70
38114;BMP180;23926;53.222;6.354;2024-02-28T04:08:55;101699.00;;;7.80
38114;BMP180;23926;53.222;6.354;2024-02-28T04:11:20;101706.00;;;7.70
38114;BMP180;23926;53.222;6.354;2024-02-28T04:13:46;101714.00;;;7.60
38114;BMP180;23926;53.222;6.354;2024-02-28T04:16:11;101700.00;;;7.70
38114;BMP180;23926;53.222;6.354;2024-02-28T04:18:37;101712.00;;;7.70
38114;BMP180;23926;53.222;6.354;2024-02-28T04:21:02;101719.00;;;7.80
38114;BMP180;23926;53.222;6.354;2024-02-28T04:23:28;101710.00;;;7.90
38114;BMP180;23926;53.222;6.354;2024-02-28T04:25:53;101714.00;;;7.90
38114;BMP180;23926;53.222;6.354;2024-02-28T04:28:19;101718.00;;;8.00
38114;BMP180;23926;53.222;6.354;2024-02-28T04:30:44;101712.00;;;8.10
38114;BMP180;23926;53.222;6.354;2024-02-28T04:33:09;101719.00;;;8.10
38114;BMP180;23926;53.222;6.354;2024-02-28T04:35:35;101716.00;;;8.00
38114;BMP180;23926;53.222;6.354;2024-02-28T04:38:00;101731.00;;;8.00
38114;BMP180;23926;53.222;6.354;2024-02-28T04:40:26;101720.00;;;8.10
38114;BMP180;23926;53.222;6.354;2024-02-28T04:42:51;101720.00;;;8.10
38114;BMP180;23926;53.222;6.354;2024-02-28T04:45:16;101706.00;;;8.20
38114;BMP180;23926;53.222;6.354;2024-02-28T04:47:42;101723.00;;;8.20
38114;BMP180;23926;53.222;6.354;2024-02-28T04:50:09;101721.00;;;8.30
38114;BMP180;23926;53.222;6.354;2024-02-28T04:52:34;101728.00;;;8.10
38114;BMP180;23926;53.222;6.354;2024-02-28T04:55:00;101720.00;;;8.00
38114;BMP180;23926;53.222;6.354;2024-02-28T04:57:25;101720.00;;;8.00
38114;BMP180;23926;53.222;6.354;2024-02-28T04:59:51;101716.00;;;8.20
38114;BMP180;23926;53.222;6.354;2024-02-28T05:02:17;101708.00;;;8.10
38114;BMP180;23926;53.222;6.354;2024-02-28T05:04:43;101705.00;;;8.10
38114;BMP180;23926;53.222;6.354;2024-02-28T05:07:08;101713.00;;;8.10
38114;BMP180;23926;53.222;6.354;2024-02-28T05:09:34;101715.00;;;8.10
38114;BMP180;23926;53.222;6.354;2024-02-28T05:12:00;101718.00;;;8.10
38114;BMP180;23926;53.222;6.354;2024-02-28T05:14:25;101708.00;;;8.10
38114;BMP180;23926;53.222;6.354;2024-02-28T05:16:51;101719.00;;;8.10
38114;BMP180;23926;53.222;6.354;2024-02-28T05:19:16;101722.00;;;8.10
38114;BMP180;23926;53.222;6.354;2024-02-28T05:21:43;101712.00;;;8.20
38114;BMP180;23926;53.222;6.354;2024-02-28T05:24:09;101714.00;;;8.20
38114;BMP180;23926;53.222;6.354;2024-02-28T05:26:35;101713.00;;;8.20
38114;BMP180;23926;53.222;6.354;2024-02-28T05:29:01;101724.00;;;8.20
38114;BMP180;23926;53.222;6.354;2024-02-28T05:31:26;101720.00;;;8.20
38114;BMP180;23926;53.222;6.354;2024-02-28T05:33:53;101717.00;;;8.30
38114;BMP180;23926;53.222;6.354;2024-02-28T05:36:22;101726.00;;;8.20
38114;BMP180;23926;53.222;6.354;2024-02-28T05:38:48;101721.00;;;8.20
38114;BMP180;23926;53.222;6.354;2024-02-28T05:41:13;101725.00;;;8.30
38114;BMP180;23926;53.222;6.354;2024-02-28T05:43:41;101722.00;;;8.30
38114;BMP180;23926;53.222;6.354;2024-02-28T05:46:06;101714.00;;;8.30
38114;BMP180;23926;53.222;6.354;2024-02-28T05:48:32;101728.00;;;8.30
38114;BMP180;23926;53.222;6.354;2024-02-28T05:50:57;101712.00;;;8.40
38114;BMP180;23926;53.222;6.354;2024-02-28T05:53:22;101716.00;;;8.50
38114;BMP180;23926;53.222;6.354;2024-02-28T05:55:52;101721.00;;;8.60
38114;BMP180;23926;53.222;6.354;2024-02-28T05:58:19;101728.00;;;8.60
38114;BMP180;23926;53.222;6.354;2024-02-28T06:00:44;101729.00;;;8.60
38114;BMP180;23926;53.222;6.354;2024-02-28T06:03:09;101734.00;;;8.60
38114;BMP180;23926;53.222;6.354;2024-02-28T06:05:35;101734.00;;;8.70
38114;BMP180;23926;53.222;6.354;2024-02-28T06:08:00;101734.00;;;8.70
38114;BMP180;23926;53.222;6.354;2024-02-28T06:10:25;101734.00;;;8.80
38114;BMP180;23926;53.222;6.354;2024-02-28T06:12:51;101715.00;;;8.80
38114;BMP180;23926;53.222;6.354;2024-02-28T06:15:17;101736.00;;;8.70
38114;BMP180;23926;53.222;6.354;2024-02-28T06:17:42;101743.00;;;8.60
38114;BMP180;23926;53.222;6.354;2024-02-28T06:20:08;101744.00;;;8.60
38114;BMP180;23926;53.222;6.354;2024-02-28T06:22:33;101736.00;;;8.70
38114;BMP180;23926;53.222;6.354;2024-02-28T06:24:59;101741.00;;;8.50
38114;BMP180;23926;53.222;6.354;2024-02-28T06:27:24;101738.00;;;8.50
38114;BMP180;23926;53.222;6.354;2024-02-28T06:29:51;101741.00;;;8.60
38114;BMP180;23926;53.222;6.354;2024-02-28T06:32:17;101750.00;;;8.60
38114;BMP180;23926;53.222;6.354;2024-02-28T06:34:42;101751.00;;;8.60
38114;BMP180;23926;53.222;6.354;2024-02-28T06:37:07;101762.00;;;8.60
38114;BMP180;23926;53.222;6.354;2024-02-28T06:39:33;101755.00;;;8.50
38114;BMP180;23926;53.222;6.354;2024-02-28T06:41:59;101754.00;;;8.40
38114;BMP180;23926;53.222;6.354;2024-02-28T06:44:24;101762.00;;;8.50
38114;BMP180;23926;53.222;6.354;2024-02-28T06:46:49;101772.00;;;8.60
38114;BMP180;23926;53.222;6.354;2024-02-28T06:49:15;101765.00;;;8.50
38114;BMP180;23926;53.222;6.354;2024-02-28T06:51:41;101775.00;;;8.60
38114;BMP180;23926;53.222;6.354;2024-02-28T06:54:07;101774.00;;;8.60
38114;BMP180;23926;53.222;6.354;2024-02-28T06:56:32;101785.00;;;8.70
38114;BMP180;23926;53.222;6.354;2024-02-28T06:58:57;101785.00;;;8.60
38114;BMP180;23926;53.222;6.354;2024-02-28T07:01:23;101789.00;;;8.70
38114;BMP180;23926;53.222;6.354;2024-02-28T07:03:48;101795.00;;;8.80
38114;BMP180;23926;53.222;6.354;2024-02-28T07:06:13;101790.00;;;8.90
38114;BMP180;23926;53.222;6.354;2024-02-28T07:08:39;101798.00;;;9.00
38114;BMP180;23926;53.222;6.354;2024-02-28T07:11:04;101777.00;;;9.10
38114;BMP180;23926;53.222;6.354;2024-02-28T07:13:30;101785.00;;;9.10
38114;BMP180;23926;53.222;6.354;2024-02-28T07:15:55;101788.00;;;9.20
38114;BMP180;23926;53.222;6.354;2024-02-28T07:18:23;101798.00;;;9.20
38114;BMP180;23926;53.222;6.354;2024-02-28T07:20:51;101799.00;;;9.20
38114;BMP180;23926;53.222;6.354;2024-02-28T07:23:17;101819.00;;;9.10
38114;BMP180;23926;53.222;6.354;2024-02-28T07:25:42;101815.00;;;9.20
38114;BMP180;23926;53.222;6.354;2024-02-28T07:28:08;101801.00;;;9.20
38114;BMP180;23926;53.222;6.354;2024-02-28T07:30:33;101810.00;;;9.20
38114;BMP180;23926;53.222;6.354;2024-02-28T07:32:59;101813.00;;;9.30
38114;BMP180;23926;53.222;6.354;2024-02-28T07:35:24;101824.00;;;9.30
38114;BMP180;23926;53.222;6.354;2024-02-28T07:37:49;101818.00;;;9.40
38114;BMP180;23926;53.222;6.354;2024-02-28T07:40:15;101819.00;;;9.40
38114;BMP180;23926;53.222;6.354;2024-02-28T07:42:40;101831.00;;;9.50
38114;BMP180;23926;53.222;6.354;2024-02-28T07:45:06;101836.00;;;9.60
38114;BMP180;23926;53.222;6.354;2024-02-28T07:47:34;101833.00;;;9.60
38114;BMP180;23926;53.222;6.354;2024-02-28T07:49:59;101832.00;;;9.70
38114;BMP180;23926;53.222;6.354;2024-02-28T07:52:24;101824.00;;;9.70
38114;BMP180;23926;53.222;6.354;2024-02-28T07:54:50;101837.00;;;9.70
38114;BMP180;23926;53.222;6.354;2024-02-28T07:57:15;101823.00;;;9.80
38114;BMP180;23926;53.222;6.354;2024-02-28T07:59:41;101835.00;;;9.90
38114;BMP180;23926;53.222;6.354;2024-02-28T08:02:07;101841.00;;;9.90
38114;BMP180;23926;53.222;6.354;2024-02-28T08:04:33;101849.00;;;9.80
38114;BMP180;23926;53.222;6.354;2024-02-28T08:06:59;101858.00;;;9.90
38114;BMP180;23926;53.222;6.354;2024-02-28T08:09:25;101870.00;;;9.90
38114;BMP180;23926;53.222;6.354;2024-02-28T08:11:50;101863.00;;;9.90
38114;BMP180;23926;53.222;6.354;2024-02-28T08:14:16;101853.00;;;9.80
38114;BMP180;23926;53.222;6.354;2024-02-28T08:16:41;101865.00;;;10.00
38114;BMP180;23926;53.222;6.354;2024-02-28T08:19:06;101860.00;;;10.00
38114;BMP180;23926;53.222;6.354;2024-02-28T08:21:32;101870.00;;;9.90
38114;BMP180;23926;53.222;6.354;2024-02-28T08:23:57;101852.00;;;9.90
38114;BMP180;23926;53.222;6.354;2024-02-28T08:26:23;101859.00;;;9.90
38114;BMP180;23926;53.222;6.354;2024-02-28T08:28:49;101854.00;;;10.00
38114;BMP180;23926;53.222;6.354;2024-02-28T08:31:16;101876.00;;;10.20
38114;BMP180;23926;53.222;6.354;2024-02-28T08:33:41;101861.00;;;10.30
38114;BMP180;23926;53.222;6.354;2024-02-28T08:36:07;101860.00;;;10.40
38114;BMP180;23926;53.222;6.354;2024-02-28T08:38:32;101874.00;;;10.50
38114;BMP180;23926;53.222;6.354;2024-02-28T08:40:57;101865.00;;;10.60
38114;BMP180;23926;53.222;6.354;2024-02-28T08:43:23;101871.00;;;10.70
38114;BMP180;23926;53.222;6.354;2024-02-28T08:45:48;101873.00;;;10.70
38114;BMP180;23926;53.222;6.354;2024-02-28T08:48:16;101876.00;;;10.60
38114;BMP180;23926;53.222;6.354;2024-02-28T08:50:42;101887.00;;;10.70
38114;BMP180;23926;53.222;6.354;2024-02-28T08:53:07;101883.00;;;11.00
38114;BMP180;23926;53.222;6.354;2024-02-28T08:55:33;101879.00;;;11.20
38114;BMP180;23926;53.222;6.354;2024-02-28T08:57:58;101887.00;;;11.20
38114;BMP180;23926;53.222;6.354;2024-02-28T09:00:24;101887.00;;;11.10
38114;BMP180;23926;53.222;6.354;2024-02-28T09:02:49;101886.00;;;10.80
38114;BMP180;23926;53.222;6.354;2024-02-28T09:05:15;101893.00;;;10.90
38114;BMP180;23926;53.222;6.354;2024-02-28T09:07:40;101883.00;;;10.80
38114;BMP180;23926;53.222;6.354;2024-02-28T09:10:06;101897.00;;;10.80
38114;BMP180;23926;53.222;6.354;2024-02-28T09:12:32;101897.00;;;10.60
38114;BMP180;23926;53.222;6.354;2024-02-28T09:14:57;101893.00;;;10.50
38114;BMP180;23926;53.222;6.354;2024-02-28T09:17:24;101894.00;;;10.40
38114;BMP180;23926;53.222;6.354;2024-02-28T09:19:49;101900.00;;;10.40
38114;BMP180;23926;53.222;6.354;2024-02-28T09:22:15;101890.00;;;10.50
38114;BMP180;23926;53.222;6.354;2024-02-28T09:24:42;101897.00;;;10.50
38114;BMP180;23926;53.222;6.354;2024-02-28T09:27:07;101890.00;;;10.60
38114;BMP180;23926;53.222;6.354;2024-02-28T09:29:33;101897.00;;;10.80
38114;BMP180;23926;53.222;6.354;2024-02-28T09:31:58;101902.00;;;10.80
38114;BMP180;23926;53.222;6.354;2024-02-28T09:34:23;101886.00;;;10.80
38114;BMP180;23926;53.222;6.354;2024-02-28T09:36:49;101894.00;;;10.70
38114;BMP180;23926;53.222;6.354;2024-02-28T09:39:15;101900.00;;;10.70
38114;BMP180;23926;53.222;6.354;2024-02-28T09:41:44;101893.00;;;10.70
38114;BMP180;23926;53.222;6.354;2024-02-28T09:44:14;101899.00;;;10.50
38114;BMP180;23926;53.222;6.354;2024-02-28T09:46:40;101895.00;;;10.80
38114;BMP180;23926;53.222;6.354;2024-02-28T09:49:07;101896.00;;;10.80
38114;BMP180;23926;53.222;6.354;2024-02-28T09:51:36;101894.00;;;10.80
38114;BMP180;23926;53.222;6.354;2024-02-28T09:54:05;101890.00;;;11.20
38114;BMP180;23926;53.222;6.354;2024-02-28T09:56:33;101896.00;;;11.30
38114;BMP180;23926;53.222;6.354;2024-02-28T09:59:00;101905.00;;;11.50
38114;BMP180;23926;53.222;6.354;2024-02-28T10:01:27;101891.00;;;11.80
38114;BMP180;23926;53.222;6.354;2024-02-28T10:03:55;101895.00;;;12.10
38114;BMP180;23926;53.222;6.354;2024-02-28T10:06:21;101902.00;;;12.40
38114;BMP180;23926;53.222;6.354;2024-02-28T10:08:47;101899.00;;;12.50
38114;BMP180;23926;53.222;6.354;2024-02-28T10:11:23;101914.00;;;12.60
38114;BMP180;23926;53.222;6.354;2024-02-28T10:13:49;101912.00;;;12.60
38114;BMP180;23926;53.222;6.354;2024-02-28T10:16:15;101907.00;;;12.50
38114;BMP180;23926;53.222;6.354;2024-02-28T10:18:45;101916.00;;;12.30
38114;BMP180;23926;53.222;6.354;2024-02-28T10:21:11;101934.00;;;12.30
38114;BMP180;23926;53.222;6.354;2024-02-28T10:23:43;101930.00;;;12.30
38114;BMP180;23926;53.222;6.354;2024-02-28T10:26:10;101940.00;;;12.10
38114;BMP180;23926;53.222;6.354;2024-02-28T10:28:39;101946.00;;;12.20
38114;BMP180;23926;53.222;6.354;2024-02-28T10:31:08;101933.00;;;12.10
38114;BMP180;23926;53.222;6.354;2024-02-28T10:33:34;101935.00;;;12.10
38114;BMP180;23926;53.222;6.354;2024-02-28T10:36:02;101929.00;;;12.30
38114;BMP180;23926;53.222;6.354;2024-02-28T10:38:28;101928.00;;;12.30
38114;BMP180;23926;53.222;6.354;2024-02-28T10:40:54;101930.00;;;12.30
38114;BMP180;23926;53.222;6.354;2024-02-28T10:43:19;101921.00;;;12.30
38114;BMP180;23926;53.222;6.354;2024-02-28T10:45:45;101929.00;;;12.40
38114;BMP180;23926;53.222;6.354;2024-02-28T10:48:14;101917.00;;;12.50
38114;BMP180;23926;53.222;6.354;2024-02-28T10:50:39;101928.00;;;12.30
38114;BMP180;23926;53.222;6.354;2024-02-28T10:53:14;101928.00;;;12.30
38114;BMP180;23926;53.222;6.354;2024-02-28T10:55:41;101920.00;;;12.60
38114;BMP180;23926;53.222;6.354;2024-02-28T10:58:08;101929.00;;;12.70
38114;BMP180;23926;53.222;6.354;2024-02-28T11:00:36;101921.00;;;12.70
38114;BMP180;23926;53.222;6.354;2024-02-28T11:03:04;101922.00;;;12.80
38114;BMP180;23926;53.222;6.354;2024-02-28T11:05:41;101922.00;;;13.10
38114;BMP180;23926;53.222;6.354;2024-02-28T11:10:40;101925.00;;;13.20
38114;BMP180;23926;53.222;6.354;2024-02-28T11:13:05;101924.00;;;13.40
38114;BMP180;23926;53.222;6.354;2024-02-28T11:15:31;101915.00;;;13.40
38114;BMP180;23926;53.222;6.354;2024-02-28T11:18:07;101914.00;;;13.50
38114;BMP180;23926;53.222;6.354;2024-02-28T11:20:33;101902.00;;;13.70
38114;BMP180;23926;53.222;6.354;2024-02-28T11:22:59;101905.00;;;13.70
38114;BMP180;23926;53.222;6.354;2024-02-28T11:25:25;101908.00;;;13.80
38114;BMP180;23926;53.222;6.354;2024-02-28T11:27:50;101900.00;;;13.90
38114;BMP180;23926;53.222;6.354;2024-02-28T11:30:17;101909.00;;;13.90
38114;BMP180;23926;53.222;6.354;2024-02-28T11:32:42;101895.00;;;14.20
38114;BMP180;23926;53.222;6.354;2024-02-28T11:35:09;101900.00;;;14.20
38114;BMP180;23926;53.222;6.354;2024-02-28T11:37:35;101893.00;;;14.20
38114;BMP180;23926;53.222;6.354;2024-02-28T11:40:00;101899.00;;;14.20
38114;BMP180;23926;53.222;6.354;2024-02-28T11:42:26;101897.00;;;14.30
38114;BMP180;23926;53.222;6.354;2024-02-28T11:44:55;101891.00;;;14.20
38114;BMP180;23926;53.222;6.354;2024-02-28T11:47:25;101887.00;;;14.10
38114;BMP180;23926;53.222;6.354;2024-02-28T11:49:51;101888.00;;;14.20
38114;BMP180;23926;53.222;6.354;2024-02-28T11:52:16;101894.00;;;14.30
38114;BMP180;23926;53.222;6.354;2024-02-28T11:54:41;101888.00;;;14.20
38114;BMP180;23926;53.222;6.354;2024-02-28T11:57:07;101896.00;;;13.80
38114;BMP180;23926;53.222;6.354;2024-02-28T11:59:36;101885.00;;;13.90
38114;BMP180;23926;53.222;6.354;2024-02-28T12:02:11;101895.00;;;13.90
38114;BMP180;23926;53.222;6.354;2024-02-28T12:04:37;101889.00;;;13.80
38114;BMP180;23926;53.222;6.354;2024-02-28T12:07:02;101889.00;;;13.80
38114;BMP180;23926;53.222;6.354;2024-02-28T12:09:30;101889.00;;;13.80
38114;BMP180;23926;53.222;6.354;2024-02-28T12:11:55;101887.00;;;13.80
38114;BMP180;23926;53.222;6.354;2024-02-28T12:14:21;101878.00;;;13.70
38114;BMP180;23926;53.222;6.354;2024-02-28T12:16:48;101882.00;;;13.70
38114;BMP180;23926;53.222;6.354;2024-02-28T12:19:13;101882.00;;;13.60
38114;BMP180;23926;53.222;6.354;2024-02-28T12:21:40;101889.00;;;13.50
38114;BMP180;23926;53.222;6.354;2024-02-28T12:24:10;101883.00;;;13.20
38114;BMP180;23926;53.222;6.354;2024-02-28T12:26:36;101890.00;;;13.20
38114;BMP180;23926;53.222;6.354;2024-02-28T12:29:02;101888.00;;;13.20
38114;BMP180;23926;53.222;6.354;2024-02-28T12:31:28;101886.00;;;13.10
38114;BMP180;23926;53.222;6.354;2024-02-28T12:33:53;101889.00;;;13.10
38114;BMP180;23926;53.222;6.354;2024-02-28T12:36:19;101883.00;;;13.30
38114;BMP180;23926;53.222;6.354;2024-02-28T12:38:45;101880.00;;;13.40
38114;BMP180;23926;53.222;6.354;2024-02-28T12:41:11;101879.00;;;13.40
38114;BMP180;23926;53.222;6.354;2024-02-28T12:43:36;101875.00;;;13.40
38114;BMP180;23926;53.222;6.354;2024-02-28T12:46:02;101879.00;;;13.40
38114;BMP180;23926;53.222;6.354;2024-02-28T12:48:27;101880.00;;;13.20
38114;BMP180;23926;53.222;6.354;2024-02-28T12:50:54;101871.00;;;13.40
38114;BMP180;23926;53.222;6.354;2024-02-28T12:53:20;101874.00;;;13.30
38114;BMP180;23926;53.222;6.354;2024-02-28T12:55:45;101857.00;;;13.10
38114;BMP180;23926;53.222;6.354;2024-02-28T12:58:11;101870.00;;;13.30
38114;BMP180;23926;53.222;6.354;2024-02-28T13:00:36;101849.00;;;13.00
38114;BMP180;23926;53.222;6.354;2024-02-28T13:03:02;101850.00;;;13.10
38114;BMP180;23926;53.222;6.354;2024-02-28T13:05:28;101857.00;;;13.00
38114;BMP180;23926;53.222;6.354;2024-02-28T13:07:54;101842.00;;;13.20
38114;BMP180;23926;53.222;6.354;2024-02-28T13:10:19;101853.00;;;13.50
38114;BMP180;23926;53.222;6.354;2024-02-28T13:12:47;101851.00;;;13.50
38114;BMP180;23926;53.222;6.354;2024-02-28T13:15:12;101851.00;;;13.60
38114;BMP180;23926;53.222;6.354;2024-02-28T13:17:37;101857.00;;;13.70
38114;BMP180;23926;53.222;6.354;2024-02-28T13:20:03;101856.00;;;13.90
38114;BMP180;23926;53.222;6.354;2024-02-28T13:22:29;101855.00;;;13.80
38114;BMP180;23926;53.222;6.354;2024-02-28T13:24:54;101840.00;;;13.80
38114;BMP180;23926;53.222;6.354;2024-02-28T13:27:20;101830.00;;;14.00
38114;BMP180;23926;53.222;6.354;2024-02-28T13:29:45;101823.00;;;14.10
38114;BMP180;23926;53.222;6.354;2024-02-28T13:32:11;101823.00;;;14.10
38114;BMP180;23926;53.222;6.354;2024-02-28T13:34:36;101832.00;;;14.10
38114;BMP180;23926;53.222;6.354;2024-02-28T13:37:02;101823.00;;;14.20
38114;BMP180;23926;53.222;6.354;2024-02-28T13:39:27;101813.00;;;14.10
38114;BMP180;23926;53.222;6.354;2024-02-28T13:41:53;101818.00;;;14.20
38114;BMP180;23926;53.222;6.354;2024-02-28T13:44:18;101817.00;;;14.40
38114;BMP180;23926;53.222;6.354;2024-02-28T13:46:45;101817.00;;;14.40
38114;BMP180;23926;53.222;6.354;2024-02-28T13:49:10;101819.00;;;14.50
38114;BMP180;23926;53.222;6.354;2024-02-28T13:51:36;101807.00;;;14.40
38114;BMP180;23926;53.222;6.354;2024-02-28T13:54:01;101817.00;;;14.40
38114;BMP180;23926;53.222;6.354;2024-02-28T13:56:27;101815.00;;;14.30
38114;BMP180;23926;53.222;6.354;2024-02-28T13:58:52;101804.00;;;14.50